createdAt,value
2023-04-21T00:01:55.446Z,20.80
2023-04-21T00:04:22.393Z,21.80
2023-04-21T00:06:49.241Z,21.85
2023-04-21T00:09:17.287Z,21.90
2023-04-21T00:11:44.520Z,21.98
2023-04-21T00:14:11.295Z,22.23
2023-04-21T00:16:38.732Z,23.27
2023-04-21T00:19:07.359Z,22.65
2023-04-21T00:21:34.821Z,21.92
2023-04-21T00:24:01.508Z,22.67
2023-04-21T00:26:28.392Z,25.17
2023-04-21T00:28:55.759Z,26.48
2023-04-21T00:31:23.549Z,27.48
2023-04-21T00:33:50.270Z,24.27
2023-04-21T00:36:16.972Z,23.48
2023-04-21T00:38:43.786Z,24.33
2023-04-21T00:41:10.538Z,21.50
2023-04-21T00:43:38.124Z,20.27
2023-04-21T00:46:04.925Z,23.13
2023-04-21T00:48:31.602Z,22.13
2023-04-21T00:50:59.403Z,23.75
2023-04-21T00:53:27.746Z,21.15
2023-04-21T00:55:54.542Z,25.52
2023-04-21T00:58:21.340Z,26.58
2023-04-21T01:00:48.632Z,27.05
2023-04-21T01:03:16.061Z,26.63
2023-04-21T01:05:42.893Z,26.00
2023-04-21T01:08:12.100Z,24.25
2023-04-21T01:10:38.813Z,25.10
2023-04-21T01:13:06.093Z,22.48
2023-04-21T01:15:32.881Z,25.85
2023-04-21T01:17:59.651Z,29.27
2023-04-21T01:20:26.738Z,23.10
2023-04-21T01:22:53.565Z,26.42
2023-04-21T01:25:22.973Z,25.25
2023-04-21T01:27:49.815Z,24.83
2023-04-21T01:30:16.585Z,22.20
2023-04-21T01:32:43.372Z,25.13
2023-04-21T01:35:10.195Z,25.42
2023-04-21T01:37:38.566Z,24.00
2023-04-21T01:40:07.588Z,25.35
2023-04-21T01:42:35.965Z,25.15
2023-04-21T01:45:03.414Z,22.63
2023-04-21T01:47:30.448Z,24.27
2023-04-21T01:49:57.236Z,21.75
2023-04-21T01:52:24.036Z,24.08
2023-04-21T01:54:53.480Z,22.35
2023-04-21T01:57:20.276Z,23.63
2023-04-21T01:59:47.256Z,23.30
2023-04-21T02:02:14.123Z,24.10
2023-04-21T02:04:41.017Z,21.50
2023-04-21T02:07:07.942Z,24.35
2023-04-21T02:09:34.649Z,21.25
2023-04-21T02:12:02.058Z,22.05
2023-04-21T02:14:28.777Z,28.77
2023-04-21T02:16:56.425Z,21.15
2023-04-21T02:19:23.525Z,22.25
2023-04-21T02:21:50.432Z,16.45
2023-04-21T02:24:17.275Z,15.93
2023-04-21T02:26:45.696Z,20.15
2023-04-21T02:29:12.487Z,21.95
2023-04-21T02:31:53.739Z,19.08
2023-04-21T02:34:24.469Z,18.48
2023-04-21T02:36:51.384Z,20.23
2023-04-21T02:39:19.492Z,49.65
2023-04-21T02:41:46.543Z,19.13
2023-04-21T02:44:13.275Z,22.48
2023-04-21T02:46:41.351Z,18.02
2023-04-21T02:49:08.436Z,17.48
2023-04-21T02:51:35.502Z,17.25
2023-04-21T02:54:02.181Z,16.30
2023-04-21T02:56:29.235Z,17.73
2023-04-21T02:58:56.122Z,21.20
2023-04-21T03:01:23.064Z,22.98
2023-04-21T03:03:49.946Z,18.10
2023-04-21T03:06:16.724Z,18.35
2023-04-21T03:08:43.604Z,20.10
2023-04-21T03:11:10.642Z,17.40
2023-04-21T03:13:37.339Z,17.55
2023-04-21T03:16:04.344Z,17.33
2023-04-21T03:18:31.097Z,19.27
2023-04-21T03:21:01.850Z,26.02
2023-04-21T03:23:28.548Z,18.00
2023-04-21T03:25:55.361Z,29.50
2023-04-21T03:28:22.051Z,16.13
2023-04-21T03:30:48.873Z,20.40
2023-04-21T03:33:15.786Z,16.92
2023-04-21T03:35:42.584Z,24.25
2023-04-21T03:38:09.345Z,21.58
2023-04-21T03:40:36.139Z,17.27
2023-04-21T03:43:03.682Z,19.20
2023-04-21T03:45:30.626Z,27.15
2023-04-21T03:47:59.332Z,18.23
2023-04-21T03:50:26.235Z,17.10
2023-04-21T03:52:52.945Z,17.25
2023-04-21T03:55:19.749Z,17.08
2023-04-21T03:57:46.435Z,17.60
2023-04-21T04:00:14.102Z,16.17
2023-04-21T04:02:41.226Z,16.60
2023-04-21T04:05:08.454Z,22.73
2023-04-21T04:07:35.582Z,19.38
2023-04-21T04:10:02.300Z,19.02
2023-04-21T04:12:29.032Z,20.42
2023-04-21T04:14:55.743Z,16.17
2023-04-21T04:17:22.896Z,23.50
2023-04-21T04:19:49.647Z,20.42
2023-04-21T04:22:16.343Z,19.25
2023-04-21T04:24:45.246Z,20.10
2023-04-21T04:27:14.269Z,17.08
2023-04-21T04:29:41.333Z,32.22
2023-04-21T04:32:11.318Z,18.77
2023-04-21T04:34:38.526Z,17.70
2023-04-21T04:37:05.398Z,19.85
2023-04-21T04:39:32.347Z,20.90
2023-04-21T04:41:59.682Z,20.67
2023-04-21T04:44:26.376Z,19.55
2023-04-21T04:46:54.356Z,19.13
2023-04-21T04:49:23.568Z,19.92
2023-04-21T04:51:50.988Z,17.20
2023-04-21T04:54:17.904Z,16.80
2023-04-21T04:56:44.926Z,20.70
2023-04-21T04:59:12.163Z,21.45
2023-04-21T05:01:40.279Z,21.77
2023-04-21T05:04:07.242Z,18.08
2023-04-21T05:06:34.146Z,17.67
2023-04-21T05:09:00.942Z,19.42
2023-04-21T05:11:27.653Z,28.05
2023-04-21T05:13:54.403Z,19.95
2023-04-21T05:16:21.185Z,22.00
2023-04-21T05:18:51.112Z,19.85
2023-04-21T05:21:25.506Z,22.38
2023-04-21T05:23:52.183Z,17.30
2023-04-21T05:26:18.904Z,22.00
2023-04-21T05:28:45.667Z,19.23
2023-04-21T05:31:12.436Z,18.30
2023-04-21T05:33:39.102Z,21.58
2023-04-21T05:36:09.754Z,20.33
2023-04-21T05:38:36.973Z,20.92
2023-04-21T05:41:04.492Z,16.95
2023-04-21T05:43:34.725Z,21.52
2023-04-21T05:46:09.134Z,22.40
2023-04-21T05:48:36.303Z,22.45
2023-04-21T05:51:13.425Z,21.30
2023-04-21T05:53:40.592Z,25.00
2023-04-21T05:56:09.913Z,24.65
2023-04-21T05:58:37.029Z,22.55
2023-04-21T06:01:04.034Z,25.02
2023-04-21T06:03:32.278Z,26.35
2023-04-21T06:06:03.709Z,25.05
2023-04-21T06:08:30.715Z,21.25
2023-04-21T06:10:57.422Z,22.05
2023-04-21T06:13:24.703Z,26.58
2023-04-21T06:15:51.420Z,19.75
2023-04-21T06:18:18.820Z,22.60
2023-04-21T06:20:52.080Z,22.63
2023-04-21T06:23:18.825Z,22.85
2023-04-21T06:25:45.574Z,24.85
2023-04-21T06:28:12.720Z,23.75
2023-04-21T06:30:39.477Z,24.30
2023-04-21T06:33:07.000Z,20.73
2023-04-21T06:35:33.918Z,23.92
2023-04-21T06:38:00.725Z,24.67
2023-04-21T06:40:27.446Z,24.35
2023-04-21T06:42:54.374Z,22.42
2023-04-21T06:45:21.158Z,26.58
2023-04-21T06:47:47.944Z,22.50
2023-04-21T06:50:14.740Z,23.67
2023-04-21T06:52:41.586Z,25.13
2023-04-21T06:55:08.555Z,25.05
2023-04-21T06:57:35.306Z,26.50
2023-04-21T07:00:02.104Z,24.27
2023-04-21T07:02:28.906Z,27.55
2023-04-21T07:04:55.661Z,25.55
2023-04-21T07:07:22.380Z,27.02
2023-04-21T07:09:49.153Z,25.20
2023-04-21T07:12:16.165Z,25.30
2023-04-21T07:14:42.937Z,26.48
2023-04-21T07:17:09.866Z,23.83
2023-04-21T07:19:37.291Z,19.80
2023-04-21T07:22:04.071Z,23.85
2023-04-21T07:24:32.424Z,20.15
2023-04-21T07:26:59.131Z,24.58
2023-04-21T07:29:26.323Z,22.17
2023-04-21T07:31:54.151Z,18.85
2023-04-21T07:34:21.480Z,20.55
2023-04-21T07:36:48.225Z,21.83
2023-04-21T07:39:14.875Z,22.63
2023-04-21T07:41:41.731Z,22.95
2023-04-21T07:44:08.471Z,21.92
2023-04-21T07:46:35.248Z,21.48
2023-04-21T07:49:03.896Z,20.42
2023-04-21T07:51:32.133Z,18.50
2023-04-21T07:53:58.874Z,20.48
2023-04-21T07:56:25.927Z,20.63
2023-04-21T07:58:52.617Z,17.30
2023-04-21T08:01:20.662Z,19.90
2023-04-21T08:03:47.712Z,17.95
2023-04-21T08:06:15.041Z,19.60
2023-04-21T08:08:41.888Z,19.55
2023-04-21T08:11:10.437Z,20.15
2023-04-21T08:13:37.764Z,20.08
2023-04-21T08:16:04.795Z,16.80
2023-04-21T08:18:31.675Z,16.55
2023-04-21T08:20:58.641Z,18.30
2023-04-21T08:23:25.603Z,18.52
2023-04-21T08:25:52.324Z,18.23
2023-04-21T08:28:19.054Z,23.33
2023-04-21T08:30:45.813Z,18.58
2023-04-21T08:33:14.057Z,16.35
2023-04-21T08:35:54.887Z,15.50
2023-04-21T08:38:28.192Z,16.58
2023-04-21T08:40:56.238Z,17.15
2023-04-21T08:43:23.007Z,13.93
2023-04-21T08:45:50.601Z,12.93
2023-04-21T08:48:20.282Z,14.80
2023-04-21T08:50:49.259Z,12.15
2023-04-21T08:53:16.488Z,13.10
2023-04-21T08:55:43.619Z,11.88
2023-04-21T08:58:10.625Z,13.55
2023-04-21T09:00:37.346Z,13.85
2023-04-21T09:03:13.186Z,13.85
2023-04-21T09:08:16.754Z,11.55
2023-04-21T09:10:48.136Z,9.98
2023-04-21T09:13:15.209Z,11.10
2023-04-21T09:15:46.490Z,10.43
2023-04-21T09:18:17.149Z,9.23
2023-04-21T09:20:46.046Z,8.93
2023-04-21T09:23:13.326Z,7.35
2023-04-21T09:25:44.599Z,11.82
2023-04-21T09:28:13.707Z,9.35
2023-04-21T09:30:42.414Z,8.57
2023-04-21T09:33:27.308Z,8.18
2023-04-21T09:36:01.414Z,9.57
2023-04-21T09:38:28.096Z,8.43
2023-04-21T09:41:01.592Z,6.82
2023-04-21T09:43:28.348Z,6.82
2023-04-21T09:45:56.225Z,6.32
2023-04-21T09:48:26.181Z,8.82
2023-04-21T09:51:22.758Z,5.93
2023-04-21T09:53:41.297Z,6.38
2023-04-21T09:56:17.442Z,7.65
2023-04-21T10:01:17.506Z,6.05
2023-04-21T10:03:46.116Z,6.45
2023-04-21T10:06:13.221Z,6.75
2023-04-21T10:08:40.354Z,8.48
2023-04-21T10:11:07.809Z,6.82
2023-04-21T10:13:35.057Z,7.68
2023-04-21T10:16:08.138Z,7.88
2023-04-21T10:18:45.326Z,6.68
2023-04-21T10:21:14.554Z,6.72
2023-04-21T10:23:45.847Z,6.50
2023-04-21T10:26:15.513Z,6.10
2023-04-21T10:28:56.782Z,7.10
2023-04-21T10:31:31.800Z,6.88
2023-04-21T10:34:07.950Z,6.25
2023-04-21T10:36:51.942Z,7.35
2023-04-21T10:39:42.646Z,8.75
2023-04-21T10:42:24.708Z,6.90
2023-04-21T10:44:57.377Z,7.20
2023-04-21T10:47:33.733Z,7.47
2023-04-21T10:50:11.715Z,6.68
2023-04-21T10:52:38.477Z,6.35
2023-04-21T10:55:07.501Z,6.15
2023-04-21T10:57:35.370Z,7.15
2023-04-21T11:00:02.365Z,8.10
2023-04-21T11:02:29.317Z,7.03
2023-04-21T11:04:56.621Z,6.45
2023-04-21T11:07:24.283Z,5.85
2023-04-21T11:10:02.917Z,4.80
2023-04-21T11:12:31.831Z,5.65
2023-04-21T11:14:58.793Z,5.72
2023-04-21T11:17:25.742Z,5.18
2023-04-21T11:19:54.692Z,4.25
2023-04-21T11:22:23.692Z,4.45
2023-04-21T11:24:53.801Z,4.97
2023-04-21T11:27:22.469Z,3.72
2023-04-21T11:29:50.408Z,5.47
2023-04-21T11:32:17.710Z,4.60
2023-04-21T11:34:45.057Z,4.28
2023-04-21T11:37:17.159Z,4.03
2023-04-21T11:39:44.459Z,4.68
2023-04-21T11:42:14.552Z,4.40
2023-04-21T11:44:43.308Z,4.57
2023-04-21T11:47:14.632Z,3.03
2023-04-21T11:49:46.685Z,7.07
2023-04-21T11:52:24.568Z,3.67
2023-04-21T11:54:59.875Z,4.57
2023-04-21T11:57:31.347Z,3.97
2023-04-21T11:59:59.353Z,4.30
2023-04-21T12:02:30.764Z,3.40
2023-04-21T12:05:08.991Z,4.15
2023-04-21T12:07:37.707Z,5.10
2023-04-21T12:10:12.743Z,4.65
2023-04-21T12:12:40.673Z,4.20
2023-04-21T12:15:13.524Z,4.82
2023-04-21T12:17:45.738Z,4.10
2023-04-21T12:20:19.686Z,4.07
2023-04-21T12:22:47.172Z,3.50
2023-04-21T12:25:23.171Z,4.25
2023-04-21T12:27:54.434Z,2.95
2023-04-21T12:30:21.769Z,3.35
2023-04-21T12:32:48.886Z,3.22
2023-04-21T12:35:16.038Z,3.40
2023-04-21T12:37:42.848Z,4.15
2023-04-21T12:40:09.944Z,3.38
2023-04-21T12:42:38.127Z,3.63
2023-04-21T12:45:08.567Z,3.33
2023-04-21T12:47:37.115Z,5.15
2023-04-21T12:50:04.568Z,3.03
2023-04-21T12:52:31.352Z,3.70
2023-04-21T12:54:58.031Z,4.40
2023-04-21T12:57:24.734Z,3.88
2023-04-21T12:59:51.391Z,4.15
2023-04-21T13:02:18.382Z,3.92
2023-04-21T13:04:45.237Z,3.78
2023-04-21T13:07:12.285Z,6.15
2023-04-21T13:09:39.251Z,4.10
2023-04-21T13:12:06.309Z,3.33
2023-04-21T13:14:33.677Z,5.05
2023-04-21T13:17:01.161Z,4.22
2023-04-21T13:19:30.076Z,4.05
2023-04-21T13:21:57.175Z,4.65
2023-04-21T13:24:23.989Z,4.10
2023-04-21T13:26:50.834Z,4.28
2023-04-21T13:29:17.732Z,4.93
2023-04-21T13:31:44.532Z,5.95
2023-04-21T13:34:11.581Z,5.80
2023-04-21T13:36:38.313Z,5.10
2023-04-21T13:39:05.834Z,7.35
2023-04-21T13:41:32.677Z,4.30
2023-04-21T13:43:59.411Z,3.75
2023-04-21T13:46:26.176Z,4.75
2023-04-21T13:48:52.996Z,4.20
2023-04-21T13:51:20.809Z,3.72
2023-04-21T13:53:48.202Z,5.40
2023-04-21T13:56:15.121Z,5.05
2023-04-21T13:58:42.389Z,4.35
2023-04-21T14:01:09.616Z,4.68
2023-04-21T14:03:36.722Z,4.40
2023-04-21T14:06:04.226Z,4.68
2023-04-21T14:08:31.283Z,3.42
2023-04-21T14:10:58.482Z,3.28
2023-04-21T14:13:36.071Z,4.43
2023-04-21T14:16:07.427Z,4.22
2023-04-21T14:18:34.269Z,3.60
2023-04-21T14:21:00.978Z,4.53
2023-04-21T14:23:27.819Z,3.28
2023-04-21T14:25:55.518Z,2.60
2023-04-21T14:28:22.316Z,3.10
2023-04-21T14:30:49.060Z,2.85
2023-04-21T14:33:16.070Z,1.80
2023-04-21T14:35:42.944Z,2.40
2023-04-21T14:38:09.643Z,2.83
2023-04-21T14:40:36.480Z,3.65
2023-04-21T14:43:03.233Z,3.15
2023-04-21T14:45:30.094Z,3.05
2023-04-21T14:47:56.883Z,2.42
2023-04-21T14:50:23.661Z,3.35
2023-04-21T14:52:50.687Z,2.67
2023-04-21T14:55:17.646Z,4.55
2023-04-21T14:57:44.393Z,2.78
2023-04-21T15:00:12.368Z,3.30
2023-04-21T15:02:41.861Z,3.00
2023-04-21T15:05:09.093Z,3.15
2023-04-21T15:07:36.281Z,3.10
2023-04-21T15:10:03.287Z,2.72
2023-04-21T15:12:30.265Z,3.00
2023-04-21T15:14:56.969Z,2.60
2023-04-21T15:17:23.986Z,3.65
2023-04-21T15:19:51.235Z,2.65
2023-04-21T15:22:18.262Z,2.63
2023-04-21T15:24:45.926Z,1.92
2023-04-21T15:27:12.714Z,2.90
2023-04-21T15:29:39.459Z,2.15
2023-04-21T15:32:06.203Z,1.85
2023-04-21T15:34:32.932Z,3.17
2023-04-21T15:36:59.648Z,2.53
2023-04-21T15:39:26.339Z,2.78
2023-04-21T15:41:54.007Z,2.95
2023-04-21T15:44:21.153Z,2.22
2023-04-21T15:46:47.988Z,2.70
2023-04-21T15:49:14.767Z,3.53
2023-04-21T15:51:41.865Z,2.40
2023-04-21T15:54:10.687Z,2.13
2023-04-21T15:56:37.461Z,3.40
2023-04-21T15:59:04.831Z,2.20
2023-04-21T16:01:32.020Z,2.90
2023-04-21T16:03:59.358Z,2.40
2023-04-21T16:06:26.729Z,1.80
2023-04-21T16:08:53.461Z,2.67
2023-04-21T16:11:20.184Z,2.30
2023-04-21T16:13:46.915Z,2.33
2023-04-21T16:16:13.797Z,2.58
2023-04-21T16:18:40.766Z,2.13
2023-04-21T16:21:07.505Z,3.00
2023-04-21T16:23:34.224Z,2.22
2023-04-21T16:26:02.242Z,2.75
2023-04-21T16:28:29.058Z,2.47
2023-04-21T16:30:55.798Z,2.80
2023-04-21T16:33:22.554Z,4.03
2023-04-21T16:35:49.288Z,3.45
2023-04-21T16:38:16.113Z,2.58
2023-04-21T16:40:42.907Z,3.83
2023-04-21T16:43:09.683Z,3.65
2023-04-21T16:45:36.474Z,3.88
2023-04-21T16:48:03.292Z,2.55
2023-04-21T16:50:30.080Z,2.78
2023-04-21T16:52:56.818Z,3.20
2023-04-21T16:55:23.517Z,2.97
2023-04-21T16:57:50.377Z,2.95
2023-04-21T17:00:17.294Z,3.25
2023-04-21T17:02:44.253Z,3.08
2023-04-21T17:05:12.409Z,3.78
2023-04-21T17:07:39.802Z,3.45
2023-04-21T17:10:07.553Z,2.60
2023-04-21T17:12:34.278Z,4.05
2023-04-21T17:15:01.034Z,4.45
2023-04-21T17:17:32.113Z,3.78
2023-04-21T17:19:58.858Z,3.55
2023-04-21T17:22:25.599Z,4.32
2023-04-21T17:24:53.531Z,4.07
2023-04-21T17:27:21.297Z,3.67
2023-04-21T17:29:48.227Z,5.03
2023-04-21T17:32:15.111Z,3.45
2023-04-21T17:34:41.949Z,3.50
2023-04-21T17:37:08.641Z,4.20
2023-04-21T17:39:35.373Z,5.80
2023-04-21T17:42:03.008Z,4.30
2023-04-21T17:44:29.976Z,3.08
2023-04-21T17:46:58.279Z,4.40
2023-04-21T17:49:25.550Z,5.28
2023-04-21T17:51:52.471Z,3.75
2023-04-21T17:54:19.279Z,3.28
2023-04-21T17:56:46.442Z,4.30
2023-04-21T17:59:13.204Z,3.75
2023-04-21T18:01:40.989Z,3.25
2023-04-21T18:04:08.136Z,2.55
2023-04-21T18:06:35.649Z,3.40
2023-04-21T18:09:02.394Z,2.80
2023-04-21T18:11:29.165Z,3.50
2023-04-21T18:13:55.917Z,4.35
2023-04-21T18:16:22.846Z,4.15
2023-04-21T18:18:50.151Z,7.30
2023-04-21T18:21:17.045Z,3.63
2023-04-21T18:23:44.073Z,4.80
2023-04-21T18:26:11.113Z,3.85
2023-04-21T18:28:37.849Z,4.03
2023-04-21T18:31:04.970Z,3.90
2023-04-21T18:33:31.706Z,3.97
2023-04-21T18:35:58.548Z,3.67
2023-04-21T18:38:25.648Z,3.30
2023-04-21T18:40:52.357Z,2.45
2023-04-21T18:43:19.033Z,2.78
2023-04-21T18:45:45.855Z,2.30
2023-04-21T18:48:12.625Z,2.92
2023-04-21T18:50:40.986Z,2.42
2023-04-21T18:53:08.577Z,3.08
2023-04-21T18:55:36.242Z,2.55
2023-04-21T18:58:03.237Z,2.63
2023-04-21T19:00:32.273Z,2.80
2023-04-21T19:03:03.053Z,3.42
2023-04-21T19:05:31.594Z,2.55
2023-04-21T19:07:58.625Z,2.63
2023-04-21T19:10:26.008Z,1.65
2023-04-21T19:12:52.855Z,2.45
2023-04-21T19:15:21.335Z,1.98
2023-04-21T19:17:48.208Z,1.67
2023-04-21T19:20:15.450Z,1.70
2023-04-21T19:22:42.266Z,2.38
2023-04-21T19:25:09.452Z,2.10
2023-04-21T19:27:36.307Z,2.05
2023-04-21T19:30:03.341Z,1.75
2023-04-21T19:32:30.886Z,1.50
2023-04-21T19:34:57.787Z,1.00
2023-04-21T19:37:26.531Z,2.38
2023-04-21T19:39:53.397Z,1.92
2023-04-21T19:42:20.170Z,1.30
2023-04-21T19:44:46.935Z,1.50
2023-04-21T19:47:13.749Z,2.47
2023-04-21T19:49:40.562Z,1.45
2023-04-21T19:52:07.300Z,1.75
2023-04-21T19:54:34.038Z,4.25
2023-04-21T19:57:01.869Z,4.57
2023-04-21T19:59:28.763Z,5.40
2023-04-21T20:01:55.733Z,6.10
2023-04-21T20:04:22.726Z,5.55
2023-04-21T20:06:49.520Z,4.53
2023-04-21T20:09:16.285Z,3.35
2023-04-21T20:11:43.441Z,4.38
2023-04-21T20:14:10.183Z,4.10
2023-04-21T20:16:37.110Z,4.53
2023-04-21T20:19:04.926Z,3.70
2023-04-21T20:21:32.557Z,3.60
2023-04-21T20:23:59.262Z,3.85
2023-04-21T20:26:26.137Z,5.40
2023-04-21T20:28:52.809Z,5.22
2023-04-21T20:31:23.797Z,3.90
2023-04-21T20:33:51.263Z,4.55
2023-04-21T20:36:18.574Z,3.60
2023-04-21T20:38:46.593Z,4.68
2023-04-21T20:41:13.648Z,3.60
2023-04-21T20:43:40.893Z,5.97
2023-04-21T20:46:09.103Z,4.15
2023-04-21T20:48:36.070Z,4.68
2023-04-21T20:51:02.968Z,3.97
2023-04-21T20:53:29.681Z,5.47
2023-04-21T20:55:56.397Z,3.60
2023-04-21T20:58:24.576Z,3.63
2023-04-21T21:00:51.330Z,4.72
2023-04-21T21:03:20.745Z,4.13
2023-04-21T21:05:48.073Z,3.90
2023-04-21T21:08:15.314Z,2.72
2023-04-21T21:10:42.270Z,3.22
2023-04-21T21:13:09.016Z,3.33
2023-04-21T21:15:35.913Z,2.45
2023-04-21T21:18:03.383Z,3.03
2023-04-21T21:20:30.222Z,3.20
2023-04-21T21:22:57.050Z,3.13
2023-04-21T21:25:23.839Z,3.80
2023-04-21T21:27:50.549Z,3.15
2023-04-21T21:30:17.317Z,2.83
2023-04-21T21:32:44.243Z,5.47
2023-04-21T21:35:12.116Z,4.28
2023-04-21T21:37:39.404Z,3.78
2023-04-21T21:40:07.272Z,3.20
2023-04-21T21:42:34.103Z,4.03
2023-04-21T21:45:01.366Z,4.43
2023-04-21T21:47:28.479Z,3.30
2023-04-21T21:49:56.163Z,3.72
2023-04-21T21:52:23.332Z,4.32
2023-04-21T21:54:50.156Z,4.25
2023-04-21T21:57:17.058Z,5.68
2023-04-21T21:59:44.295Z,5.05
2023-04-21T22:02:11.292Z,4.30
2023-04-21T22:04:38.137Z,5.75
2023-04-21T22:07:05.385Z,5.40
2023-04-21T22:09:32.419Z,4.72
2023-04-21T22:11:59.431Z,5.80
2023-04-21T22:14:26.198Z,6.32
2023-04-21T22:16:53.484Z,6.47
2023-04-21T22:19:20.824Z,6.28
2023-04-21T22:21:47.575Z,6.85
2023-04-21T22:24:14.603Z,6.30
2023-04-21T22:26:41.340Z,5.57
2023-04-21T22:29:07.997Z,5.47
2023-04-21T22:31:35.009Z,6.60
2023-04-21T22:34:02.109Z,7.05
2023-04-21T22:36:28.818Z,7.55
2023-04-21T22:38:55.540Z,6.53
2023-04-21T22:41:22.693Z,6.85
2023-04-21T22:43:49.395Z,6.05
2023-04-21T22:46:16.204Z,6.63
2023-04-21T22:48:46.748Z,7.60
2023-04-21T22:51:14.575Z,8.48
2023-04-21T22:53:41.333Z,6.65
2023-04-21T22:56:08.096Z,6.20
2023-04-21T22:58:34.908Z,10.45
2023-04-21T23:01:02.210Z,7.03
2023-04-21T23:03:30.522Z,6.43
2023-04-21T23:05:57.321Z,6.57
2023-04-21T23:08:24.037Z,8.80
2023-04-21T23:10:51.208Z,6.78
2023-04-21T23:13:17.911Z,6.53
2023-04-21T23:15:44.639Z,7.35
2023-04-21T23:18:11.452Z,8.07
2023-04-21T23:20:38.174Z,8.88
2023-04-21T23:23:05.419Z,8.90
2023-04-21T23:25:33.008Z,7.43
2023-04-21T23:27:59.770Z,8.60
2023-04-21T23:30:26.493Z,10.82
2023-04-21T23:32:53.387Z,8.68
2023-04-21T23:35:20.196Z,7.57
2023-04-21T23:37:46.895Z,8.00
2023-04-21T23:40:13.888Z,6.50
2023-04-21T23:42:40.939Z,7.85
2023-04-21T23:45:08.253Z,10.27
2023-04-21T23:47:35.091Z,7.00
2023-04-21T23:50:01.821Z,8.05
2023-04-21T23:52:28.526Z,7.80
2023-04-21T23:54:55.347Z,7.57
2023-04-21T23:57:22.068Z,8.18
2023-04-21T23:59:48.807Z,7.75
